TimePST,TemperatureF,Dew PointF,Humidity,Sea Level PressureIn,VisibilityMPH,Wind Direction,Wind SpeedMPH,Gust SpeedMPH,PrecipitationIn,Events,Conditions,WindDirDegrees,DateUTC
12:15 AM,32.0,32.0,100,30.15,10.0,Calm,Calm,-,N/A,,Clear,0,2013-01-22 08:15:00
12:35 AM,33.8,32.0,93,30.14,10.0,Calm,Calm,-,N/A,,Clear,0,2013-01-22 08:35:00
12:55 AM,33.8,32.0,93,30.14,10.0,Calm,Calm,-,N/A,,Clear,0,2013-01-22 08:55:00
1:15 AM,32.0,32.0,100,30.13,10.0,Calm,Calm,-,N/A,,Clear,0,2013-01-22 09:15:00
1:35 AM,33.8,32.0,93,30.12,10.0,Calm,Calm,-,N/A,,Clear,0,2013-01-22 09:35:00
2:15 AM,32.0,32.0,100,30.13,10.0,Calm,Calm,-,N/A,,Clear,0,2013-01-22 10:15:00
2:35 AM,33.8,33.8,100,30.14,10.0,Calm,Calm,-,N/A,,Clear,0,2013-01-22 10:35:00
2:55 AM,32.0,32.0,100,30.14,10.0,NE,3.5,-,N/A,,Clear,50,2013-01-22 10:55:00
3:15 AM,32.0,30.2,93,30.13,10.0,NE,5.8,-,N/A,,Clear,50,2013-01-22 11:15:00
3:35 AM,32.0,32.0,100,30.13,10.0,NE,4.6,-,N/A,,Clear,40,2013-01-22 11:35:00
3:55 AM,30.2,30.2,100,30.13,10.0,NNE,3.5,-,N/A,,Clear,30,2013-01-22 11:55:00
4:15 AM,30.2,30.2,100,30.13,10.0,ENE,5.8,-,N/A,,Clear,60,2013-01-22 12:15:00
4:35 AM,32.0,30.2,93,30.12,10.0,NE,5.8,-,N/A,,Clear,50,2013-01-22 12:35:00
4:55 AM,32.0,30.2,93,30.11,10.0,ENE,9.2,-,N/A,,Clear,60,2013-01-22 12:55:00
5:15 AM,32.0,30.2,93,30.10,10.0,ENE,4.6,-,N/A,,Clear,70,2013-01-22 13:15:00
5:35 AM,32.0,30.2,93,30.10,10.0,Calm,Calm,-,N/A,,Clear,0,2013-01-22 13:35:00
5:55 AM,32.0,30.2,93,30.10,10.0,Calm,Calm,-,N/A,,Clear,0,2013-01-22 13:55:00
6:15 AM,32.0,30.2,93,30.10,10.0,Calm,Calm,-,N/A,,Clear,0,2013-01-22 14:15:00
6:35 AM,32.0,28.4,87,30.11,10.0,Calm,Calm,-,N/A,,Clear,0,2013-01-22 14:35:00
6:55 AM,32.0,30.2,93,30.11,10.0,Calm,Calm,-,N/A,,Clear,0,2013-01-22 14:55:00
7:15 AM,32.0,30.2,93,30.12,10.0,Calm,Calm,-,N/A,,Clear,0,2013-01-22 15:15:00
7:35 AM,33.8,30.2,87,30.13,10.0,Calm,Calm,-,N/A,,Clear,0,2013-01-22 15:35:00
7:55 AM,32.0,28.4,87,30.13,10.0,Calm,Calm,-,N/A,,Clear,0,2013-01-22 15:55:00
8:15 AM,32.0,30.2,93,30.13,10.0,East,4.6,-,N/A,,Clear,100,2013-01-22 16:15:00
8:35 AM,33.8,32.0,93,30.14,10.0,Calm,Calm,-,N/A,,Clear,0,2013-01-22 16:35:00
8:55 AM,35.6,33.8,93,30.15,10.0,SSE,5.8,-,N/A,,Clear,160,2013-01-22 16:55:00
9:15 AM,39.2,33.8,81,30.16,10.0,Calm,Calm,-,N/A,,Clear,0,2013-01-22 17:15:00
9:35 AM,42.8,35.6,76,30.16,10.0,Calm,Calm,-,N/A,,Clear,0,2013-01-22 17:35:00
9:55 AM,46.4,35.6,66,30.16,10.0,South,5.8,-,N/A,,Clear,170,2013-01-22 17:55:00
10:15 AM,48.2,35.6,62,30.16,10.0,South,3.5,-,N/A,,Clear,170,2013-01-22 18:15:00
10:35 AM,50.0,33.8,54,30.16,10.0,SSE,3.5,-,N/A,,Clear,150,2013-01-22 18:35:00
10:55 AM,51.8,35.6,54,30.15,10.0,Calm,Calm,-,N/A,,Clear,0,2013-01-22 18:55:00
11:15 AM,53.6,33.8,47,30.14,10.0,Calm,Calm,-,N/A,,Clear,0,2013-01-22 19:15:00
11:35 AM,55.4,33.8,44,30.13,-9999.0,Calm,Calm,-,N/A,,Clear,0,2013-01-22 19:35:00
12:35 PM,-9999,-9999,N/A,-9999,-9999.0,North,-9999.0,-,N/A,,Unknown,0,2013-01-22 20:35:00
12:55 PM,-9999,-9999,N/A,-9999,-9999.0,North,-9999.0,-,N/A,,Unknown,0,2013-01-22 20:55:00
1:15 PM,-9999,-9999,N/A,-9999,-9999.0,North,-9999.0,-,N/A,,Unknown,0,2013-01-22 21:15:00
1:35 PM,-9999,-9999,N/A,-9999,-9999.0,North,-9999.0,-,N/A,,Unknown,0,2013-01-22 21:35:00
1:55 PM,59.0,37.4,45,30.06,10.0,West,4.6,-,N/A,,Clear,280,2013-01-22 21:55:00
2:15 PM,59.0,37.4,45,30.06,10.0,West,5.8,-,N/A,,Clear,260,2013-01-22 22:15:00
2:35 PM,59.0,37.4,45,30.06,10.0,West,4.6,-,N/A,,Clear,270,2013-01-22 22:35:00
2:55 PM,59.0,37.4,45,30.05,10.0,West,4.6,-,N/A,,Clear,280,2013-01-22 22:55:00
3:15 PM,59.0,37.4,45,30.05,10.0,WNW,3.5,-,N/A,,Clear,290,2013-01-22 23:15:00
3:35 PM,59.0,35.6,42,30.04,10.0,Calm,Calm,-,N/A,,Clear,0,2013-01-22 23:35:00
3:55 PM,59.0,35.6,42,30.04,10.0,Calm,Calm,-,N/A,,Clear,0,2013-01-22 23:55:00
4:15 PM,57.2,37.4,48,30.05,10.0,West,3.5,-,N/A,,Clear,260,2013-01-23 00:15:00
4:35 PM,53.6,41.0,62,30.04,10.0,Calm,Calm,-,N/A,,Clear,0,2013-01-23 00:35:00
4:55 PM,53.6,41.0,62,30.04,10.0,Calm,Calm,-,N/A,,Clear,0,2013-01-23 00:55:00
5:15 PM,51.8,41.0,67,30.04,10.0,Calm,Calm,-,N/A,,Clear,0,2013-01-23 01:15:00
5:35 PM,51.8,39.2,62,30.03,10.0,Calm,Calm,-,N/A,,Clear,0,2013-01-23 01:35:00
5:55 PM,48.2,39.2,71,30.04,10.0,Calm,Calm,-,N/A,,Clear,0,2013-01-23 01:55:00
6:15 PM,46.4,37.4,71,30.04,10.0,East,4.6,-,N/A,,Clear,80,2013-01-23 02:15:00
6:35 PM,48.2,37.4,66,30.04,10.0,East,5.8,-,N/A,,Clear,90,2013-01-23 02:35:00
6:55 PM,42.8,35.6,76,30.05,10.0,ESE,3.5,-,N/A,,Clear,110,2013-01-23 02:55:00
7:15 PM,41.0,37.4,87,30.04,10.0,East,4.6,-,N/A,,Clear,80,2013-01-23 03:15:00
7:35 PM,41.0,37.4,87,30.04,10.0,East,4.6,-,N/A,,Clear,80,2013-01-23 03:35:00
7:55 PM,39.2,35.6,87,30.04,10.0,ENE,3.5,-,N/A,,Clear,70,2013-01-23 03:55:00
8:15 PM,39.2,37.4,93,30.05,10.0,Calm,Calm,-,N/A,,Clear,0,2013-01-23 04:15:00
8:35 PM,41.0,37.4,87,30.04,10.0,East,3.5,-,N/A,,Clear,80,2013-01-23 04:35:00
8:55 PM,41.0,37.4,87,30.04,10.0,ENE,6.9,-,N/A,,Clear,70,2013-01-23 04:55:00
9:15 PM,42.8,37.4,81,30.04,10.0,Calm,Calm,-,N/A,,Clear,0,2013-01-23 05:15:00
9:35 PM,42.8,37.4,81,30.05,10.0,Calm,Calm,-,N/A,,Clear,0,2013-01-23 05:35:00
9:55 PM,42.8,37.4,81,30.05,10.0,Calm,Calm,-,N/A,,Clear,0,2013-01-23 05:55:00
10:15 PM,41.0,35.6,81,30.06,10.0,Calm,Calm,-,N/A,,Clear,0,2013-01-23 06:15:00
10:35 PM,39.2,35.6,87,30.07,10.0,Calm,Calm,-,N/A,,Clear,0,2013-01-23 06:35:00
10:55 PM,39.2,37.4,93,30.07,10.0,Calm,Calm,-,N/A,,Clear,0,2013-01-23 06:55:00
11:15 PM,39.2,37.4,93,30.07,10.0,Calm,Calm,-,N/A,,Clear,0,2013-01-23 07:15:00
11:35 PM,41.0,37.4,87,30.08,10.0,Calm,Calm,-,N/A,,Clear,0,2013-01-23 07:35:00
11:55 PM,37.4,35.6,93,30.07,10.0,Calm,Calm,-,N/A,,Clear,0,2013-01-23 07:55:00